Mesquite, Nevada Weather observations

Data are for observation ending at time listed.
 Day   Time    Ave.   Ave.  Ave.  Vector   Max.   Stn.    Total    Solar   Ave.  
  of    of     Air    Rel.  Wind   Wind    Wind   Baro.  Precip.   Rad.    Soil  
Year   Day     Temp.  Hum.  Speed  Dir.    Gust   Pres.                    Temp. 
2014   (PST)    F      %     mph   deg.    mph     mb.     in.     W/m2     F   
------------------------------------------------------------------------------
 296   16:20   82.3    18    1.1    66      3.1   951.3    0.00      73    87.1
 296   16:30   81.2    19    1.8    66      3.1   951.3    0.00      47    87.0
 296   16:40   79.4    21    0.7    61      3.5   951.3    0.00      17    86.9
 296   16:50   78.5    21    0.0     0      0.0   951.3    0.00       9    86.6
 296   17:00   78.0    20    0.0     0      0.0   951.3    0.00       3    86.3
 296   17:10   77.3    20    0.0     0      0.0   951.3    0.00       3    86.0
 296   17:20   77.0    20    0.0     0      0.0   951.3    0.00       1    85.7
 296   17:30   76.7    20    0.0     0      0.0   951.3    0.00       0    85.4
 296   17:40   76.5    20    0.0     0      0.1   951.4    0.00       0    85.1
 296   17:50   76.2    21    0.0     9      1.7   951.4    0.00       0    84.7
 296   18:00   76.5    20    0.0     2      0.1   951.4    0.00       0    84.4
 296   18:10   75.2    22    0.0     0      0.0   951.6    0.00       0    84.2
 296   18:20   73.0    24    0.0     0      0.0   951.7    0.00       0    83.9
 296   18:30   70.5    27    0.0     0      0.0   951.7    0.00       0    83.6
 296   18:40   69.9    28    0.0     0      0.0   951.7    0.00       0    83.4
 296   18:50   68.6    29    0.0    84      0.4   951.7    0.00       0    83.1
 296   19:00   67.7    30    0.0     0      0.0   951.8    0.00       0    82.8
 296   19:10   67.3    31    0.0     0      0.0   951.8    0.00       0    82.6
 296   19:20   67.6    30    0.0     0      0.0   951.7    0.00       0    82.3
 296   19:30   67.2    31    0.0     0      0.0   951.8    0.00       0    82.1
 296   19:40   66.8    32    0.0     0      0.0   951.9    0.00       0    81.9
 296   19:50   67.0    31    0.0     0      0.0   952.0    0.00       0    81.6
 296   20:00   66.5    33    0.0     0      0.0   952.1    0.00       0    81.4
 296   20:10   65.3    34    0.0     0      0.0   952.1    0.00       0    81.2
 296   20:20   65.5    34    0.0     0      0.0   952.2    0.00       0    81.0
 296   20:30   65.4    34    0.0     0      0.0   952.2    0.00       0    80.8
 296   20:40   65.4    34    0.0     0      0.0   952.3    0.00       0    80.5
 296   20:50   65.0    35    0.0     0      0.0   952.3    0.00       0    80.3
 296   21:00   64.5    36    0.0     0      0.0   952.4    0.00       0    80.2
 296   21:10   65.1    34    0.0     0      0.0   952.5    0.00       0    80.0
 296   21:20   64.7    35    0.0     0      0.0   952.5    0.00       0    79.8
 296   21:30   64.5    36    0.0     0      0.0   952.6    0.00       0    79.6
 296   21:40   64.7    36    0.0     0      0.0   952.7    0.00       0    79.4
 296   21:50   64.8    36    0.0     0      0.0   952.8    0.00       0    79.2
 296   22:00   63.9    37    0.0     0      0.0   952.8    0.00       0    79.1
 296   22:10   62.2    40    0.0    94      0.2   952.9    0.00       0    78.9
 296   22:20   61.6    40    0.0     0      0.0   952.9    0.00       0    78.7
 296   22:30   60.7    42    0.1    79      3.0   953.0    0.00       0    78.5
 296   22:40   61.8    40    0.0     0      0.0   953.0    0.00       0    78.3
 296   22:50   62.1    39    0.0    88      0.1   953.1    0.00       0    78.2
 296   23:00   60.1    43    0.0   110      2.3   953.2    0.00       0    78.0
 296   23:10   59.4    44    0.0    63      2.7   953.2    0.00       0    77.8
 296   23:20   59.1    44    0.0     0      0.0   953.2    0.00       0    77.7
 296   23:30   60.2    42    0.0     0      0.0   953.2    0.00       0    77.5
 296   23:40   61.6    39    0.0     0      0.0   953.2    0.00       0    77.4
 296   23:50   62.1    38    0.0     0      0.0   953.2    0.00       0    77.2
 297    0:00   61.4    40    0.0     0      0.0   953.3    0.00       0    77.1
 297    0:10   60.1    42    0.0     0      0.0   953.4    0.00       0    76.9
 297    0:20   59.6    43    0.0     0      0.0   953.4    0.00       0    76.7
 297    0:30   58.5    46    0.0     0      0.0   953.4    0.00       0    76.6
 297    0:40   59.0    44    0.0     0      0.0   953.4    0.00       0    76.5
 297    0:50   59.1    44    0.0     0      0.0   953.5    0.00       0    76.3
 297    1:00   59.1    44    0.0     0      0.0   953.5    0.00       0    76.2
 297    1:10   59.0    44    0.0     0      0.0   953.4    0.00       0    76.1
 297    1:20   57.7    48    0.0   121      2.5   953.5    0.00       0    75.9
 297    1:30   57.2    49    0.5    82      4.4   953.5    0.00       0    75.8
 297    1:40   56.9    49    0.0    94      0.5   953.4    0.00       0    75.7
 297    1:50   57.3    48    0.0     0      0.0   953.3    0.00       0    75.5
 297    2:00   58.0    46    0.0     0      0.0   953.3    0.00       0    75.4
 297    2:10   58.1    46    0.0     0      0.0   953.2    0.00       0    75.2
 297    2:20   57.5    47    0.0     0      0.0   953.2    0.00       0    75.1
 297    2:30   57.3    47    0.0     0      0.0   953.2    0.00       0    75.0
 297    2:40   57.3    47    0.0     0      0.0   953.2    0.00       0    74.9
 297    2:50   56.7    49    0.2    58      3.0   953.2    0.00       0    74.7
 297    3:00   57.2    47    0.0    72      0.1   953.2    0.00       0    74.6
 297    3:10   57.8    45    0.0     0      0.0   953.2    0.00       0    74.5
 297    3:20   58.3    44    0.0     0      0.0   953.3    0.00       0    74.4
 297    3:30   57.9    45    0.0     0      0.0   953.4    0.00       0    74.2
 297    3:40   56.8    48    0.0     0      0.0   953.4    0.00       0    74.1
 297    3:50   56.2    49    0.0    77      0.3   953.5    0.00       0    74.0
 297    4:00   56.9    47    0.0     0      0.0   953.6    0.00       0    73.9
 297    4:10   55.6    50    0.0    82      0.7   953.7    0.00       0    73.8
 297    4:20   55.0    51    2.2    96      4.5   953.7    0.00       0    73.7
 297    4:30   55.6    50    3.4    83      4.2   953.7    0.00       0    73.6
 297    4:40   56.2    48    1.1    88      2.8   953.9    0.00       0    73.5
 297    4:50   56.8    47    1.0    97      3.6   954.0    0.00       0    73.3
 297    5:00   56.7    48    0.5    35      2.7   954.0    0.00       0    73.3
 297    5:10   56.9    47    1.2    52      3.3   954.0    0.00       0    73.1
 297    5:20   57.3    46    0.9    62      3.4   954.1    0.00       0    73.0
 297    5:30   56.8    47    0.3    71      3.2   954.2    0.00       0    72.9
 297    5:40   55.7    49    1.0    72      4.0   954.2    0.00       0    72.8
 297    5:50   55.1    50    2.9    73      4.2   954.3    0.00       2    72.7
 297    6:00   55.3    50    2.9    98      4.6   954.5    0.00       3    72.6
 297    6:10   54.8    52    3.9   100      5.3   954.6    0.00       7    72.5
 297    6:20   54.4    53    3.4    97      4.7   954.6    0.00       9    72.4
 297    6:30   55.3    50    1.1    87      4.0   954.8    0.00      28    72.3
 297    6:40   57.7    47    1.9    87      3.1   954.9    0.00      80    72.2
 297    6:50   58.5    46    2.6    68      3.9   955.0    0.00     104    72.1
 297    7:00   60.6    42    0.2    58      2.2   955.2    0.00     129    67.5
 297    7:10   62.7    39    0.0    31      0.1   955.3    0.00     153    63.3
 297    7:20   63.9    38    0.0     0      0.0   955.5    0.00     178    66.1
 297    7:30   64.7    36    0.0     0      0.0   955.6    0.00     203    68.1
 297    7:40   65.7    35    0.0     0      0.0   955.7    0.00     228    70.8
 297    7:50   67.0    34    0.1    57      2.1   955.6    0.00     251    72.4
 297    8:00   67.6    33    0.1    76      1.7   955.6    0.00     272    74.3
 297    8:10   69.5    31    0.1    13      1.4   955.7    0.00     291    76.7
 297    8:20   70.7    29    0.8    38      2.0   955.7    0.00     311    77.4
 297    8:30   73.2    27    0.1   189      1.4   955.8    0.00     330    77.5
 297    8:40   72.4    31    0.0   203      0.9   955.8    0.00     350    77.0
 297    8:50   72.4    30    0.0     0      0.0   955.9    0.00     369    80.0
 297    9:00   73.7    28    0.0   282      1.5   955.8    0.00     386    80.9
 297    9:10   73.0    28    0.0     0      0.0   955.7    0.00     403    81.7
 297    9:20   74.4    27    0.0     0      0.0   955.7    0.00     418    82.7
 297    9:30   76.8    25    0.8   206      2.7   955.7    0.00     432    83.6
 297    9:40   77.6    25    0.9   178      3.1   955.7    0.00     445    85.9
 297    9:50   78.9    24    0.6   178      2.3   955.6    0.00     457    87.7
 297   10:00   78.5    24    1.6   204      3.7   955.5    0.00     469    87.3
 297   10:10   79.4    24    1.1   199      2.8   955.4    0.00     480    89.3
 297   10:20   80.3    23    1.4   202      3.1   955.3    0.00     488    91.0
 297   10:30   80.5    23    1.7   216      3.4   955.2    0.00     496    90.5
 297   10:40   81.8    21    0.7   207      4.0   955.1    0.00     502    92.4
 297   10:50   83.3    21    0.0     0      0.0   954.9    0.00     507    96.3
 297   11:00   84.0    20    0.0     0      0.0   954.7    0.00     511    99.3
 297   11:10   83.6    20    0.0     8      1.5   954.6    0.00     512    101.0
 297   11:20   83.3    19    0.0    76      0.1   954.3    0.00     512    101.8
 297   11:30   83.2    19    0.0     0      0.0   954.2    0.00     516    100.7
 297   11:40   83.6    19    0.0    37      1.8   954.0    0.00     514    104.0
 297   11:50   83.9    19    0.0     0      0.0   953.8    0.00     512    104.7
 297   12:00   84.3    18    0.0     0      0.0   953.6    0.00     509    101.9
 297   12:10   84.8    18    0.0     0      0.0   953.4    0.00     504    101.7
 297   12:20   85.2    18    0.0     0      0.0   953.2    0.00     499    106.0
 297   12:30   85.7    18    0.0     0      0.0   953.1    0.00     491    99.0
 297   12:40   85.9    18    0.0     0      0.0   953.0    0.00     482    100.4
 297   12:50   86.8    17    0.0   266      0.1   952.8    0.00     471    101.2
 297   13:00   86.7    17    0.0     0      0.0   952.6    0.00     461    103.4
 297   13:10   86.8    17    0.0   266      0.2   952.5    0.00     449    102.5
 297   13:20   86.8    18    0.0   304      0.9   952.4    0.00     435    101.9
 297   13:30   86.9    17    0.0     0      0.0   952.2    0.00     422    102.8
 297   13:40   87.6    17    0.0     0      0.0   952.1    0.00     407    101.8
 297   13:50   87.3    17    0.0   262      4.2   952.1    0.00     388    98.1
 297   14:00   87.1    18    1.9   265      7.2   952.1    0.00     371    99.7
 297   14:10   87.2    17    1.7   259      4.0   952.0    0.00     351    100.0
 297   14:20   87.6    17    2.3   271      5.3   952.0    0.00     332    101.6
 297   14:30   88.0    17    2.0   301      6.4   951.9    0.00     312    101.0
 297   14:40   87.3    17    1.5   268      6.1   951.8    0.00     291    99.3
 297   14:50   87.8    17    0.7   229      5.8   951.6    0.00     269    98.4
 297   15:00   87.9    17    1.5   262      6.3   951.6    0.00     246    97.5
 297   15:10   88.3    16    0.1   236      3.7   951.5    0.00     223    97.3
 297   15:20   88.2    17    1.2   272      4.0   951.3    0.00     201    97.8
 297   15:30   88.0    17    1.6   239      6.1   951.2    0.00     177    95.4
 297   15:40   87.6    18    0.3   271      3.5   951.1    0.00     153    95.1
 297   15:50   87.6    18    0.2   312      3.2   951.1    0.00     130    93.9
 297   16:00   87.4    18    0.0   279      0.4   951.0    0.00     107    92.7
 297   16:10   87.4    18    0.0   280      1.2   951.0    0.00      86    92.2

Return to Mesquite, Nevada graphs page.


Western Regional Climate Center,wrcc@dri.edu